createdAt,value
2018-08-13T00:01:57.534Z,3.73
2018-08-13T00:04:26.102Z,3.43
2018-08-13T00:06:54.578Z,3.70
2018-08-13T00:09:28.404Z,3.60
2018-08-13T00:11:56.893Z,3.50
2018-08-13T00:14:25.480Z,3.37
2018-08-13T00:16:53.993Z,3.70
2018-08-13T00:19:22.530Z,3.53
2018-08-13T00:21:51.096Z,3.70
2018-08-13T00:24:19.621Z,3.60
2018-08-13T00:26:48.133Z,3.10
2018-08-13T00:29:16.648Z,3.53
2018-08-13T00:31:45.127Z,3.30
2018-08-13T00:34:13.630Z,3.30
2018-08-13T00:36:42.136Z,3.10
2018-08-13T00:39:12.479Z,3.20
2018-08-13T00:41:41.173Z,3.30
2018-08-13T00:44:09.707Z,3.37
2018-08-13T00:46:38.255Z,3.50
2018-08-13T00:49:06.815Z,3.40
2018-08-13T00:51:36.214Z,3.70
2018-08-13T00:54:04.709Z,3.40
2018-08-13T00:56:33.392Z,3.57
2018-08-13T00:59:01.928Z,3.40
2018-08-13T01:01:30.443Z,3.20
2018-08-13T01:03:58.970Z,3.60
2018-08-13T01:06:27.483Z,3.47
2018-08-13T01:08:55.984Z,3.47
2018-08-13T01:11:24.511Z,3.40
2018-08-13T01:13:53.032Z,3.30
2018-08-13T01:16:21.531Z,3.37
2018-08-13T01:18:50.057Z,3.57
2018-08-13T01:21:18.630Z,3.40
2018-08-13T01:23:47.135Z,3.40
2018-08-13T01:26:15.649Z,3.23
2018-08-13T01:28:44.163Z,3.60
2018-08-13T01:31:12.694Z,3.23
2018-08-13T01:33:41.230Z,3.10
2018-08-13T01:36:09.722Z,3.23
2018-08-13T01:38:38.227Z,3.27
2018-08-13T01:41:06.720Z,3.57
2018-08-13T01:43:35.245Z,3.27
2018-08-13T01:46:03.728Z,3.60
2018-08-13T01:48:32.291Z,3.37
2018-08-13T01:51:00.867Z,3.20
2018-08-13T01:53:29.391Z,3.20
2018-08-13T01:55:57.898Z,3.13
2018-08-13T01:58:26.396Z,3.10
2018-08-13T02:00:54.883Z,3.57
2018-08-13T02:03:23.397Z,2.90
2018-08-13T02:05:51.879Z,3.53
2018-08-13T02:08:20.436Z,2.90
2018-08-13T02:10:48.953Z,3.43
2018-08-13T02:13:17.439Z,2.97
2018-08-13T02:15:45.964Z,3.00
2018-08-13T02:18:14.450Z,3.10
2018-08-13T02:20:42.963Z,3.20
2018-08-13T02:23:11.520Z,3.20
2018-08-13T02:25:40.107Z,3.10
2018-08-13T02:28:08.631Z,2.97
2018-08-13T02:30:37.137Z,3.00
2018-08-13T02:33:05.826Z,3.40
2018-08-13T02:35:34.363Z,3.17
2018-08-13T02:38:02.917Z,3.13
2018-08-13T02:40:31.404Z,2.80
2018-08-13T02:42:59.971Z,3.20
2018-08-13T02:45:28.471Z,3.10
2018-08-13T02:47:56.978Z,3.10
2018-08-13T02:50:25.502Z,2.93
2018-08-13T02:52:54.031Z,2.93
2018-08-13T02:55:22.530Z,3.03
2018-08-13T02:57:51.072Z,3.20
2018-08-13T03:00:19.579Z,2.93
2018-08-13T03:02:48.124Z,2.97
2018-08-13T03:05:16.635Z,3.40
2018-08-13T03:07:45.150Z,2.93
2018-08-13T03:10:14.186Z,3.13
2018-08-13T03:12:43.124Z,2.90
2018-08-13T03:15:13.990Z,3.27
2018-08-13T03:17:42.537Z,3.20
2018-08-13T03:20:11.107Z,3.00
2018-08-13T03:22:39.599Z,3.00
2018-08-13T03:25:10.333Z,3.10
2018-08-13T03:27:38.848Z,3.10
2018-08-13T03:30:10.555Z,3.00
2018-08-13T03:32:39.558Z,2.77
2018-08-13T03:35:08.418Z,3.23
2018-08-13T03:37:36.901Z,3.30
2018-08-13T03:40:07.950Z,2.90
2018-08-13T03:42:36.462Z,3.20
2018-08-13T03:45:06.662Z,2.90
2018-08-13T03:47:35.145Z,3.40
2018-08-13T03:50:03.673Z,2.80
2018-08-13T03:52:32.174Z,2.70
2018-08-13T03:55:00.773Z,2.97
2018-08-13T03:57:29.265Z,2.60
2018-08-13T03:59:57.758Z,2.97
2018-08-13T04:02:26.279Z,3.17
2018-08-13T04:04:54.796Z,2.77
2018-08-13T04:07:23.465Z,2.80
2018-08-13T04:09:51.950Z,2.60
2018-08-13T04:12:20.441Z,3.00
2018-08-13T04:14:48.944Z,3.10
2018-08-13T04:17:17.438Z,3.07
2018-08-13T04:19:45.954Z,3.00
2018-08-13T04:22:14.589Z,2.70
2018-08-13T04:24:43.085Z,3.37
2018-08-13T04:27:11.570Z,3.23
2018-08-13T04:29:40.071Z,3.20
2018-08-13T04:32:08.580Z,2.77
2018-08-13T04:34:37.274Z,3.20
2018-08-13T04:37:05.827Z,3.27
2018-08-13T04:39:34.290Z,3.33
2018-08-13T04:42:02.806Z,3.40
2018-08-13T04:44:31.290Z,3.77
2018-08-13T04:46:59.796Z,4.00
2018-08-13T04:49:28.341Z,3.80
2018-08-13T04:51:56.871Z,3.20
2018-08-13T04:54:25.348Z,4.00
2018-08-13T04:56:53.833Z,3.67
2018-08-13T04:59:22.316Z,3.60
2018-08-13T05:01:50.790Z,3.73
2018-08-13T05:04:19.388Z,3.77
2018-08-13T05:06:47.895Z,3.83
2018-08-13T05:09:16.391Z,3.80
2018-08-13T05:11:44.865Z,4.13
2018-08-13T05:14:13.372Z,3.30
2018-08-13T05:16:41.860Z,4.07
2018-08-13T05:19:10.411Z,3.93
2018-08-13T05:21:38.942Z,3.60
2018-08-13T05:24:07.489Z,4.20
2018-08-13T05:26:36.007Z,4.17
2018-08-13T05:29:04.505Z,4.23
2018-08-13T05:31:33.013Z,4.43
2018-08-13T05:34:01.539Z,4.33
2018-08-13T05:36:30.035Z,4.70
2018-08-13T05:38:58.624Z,4.03
2018-08-13T05:41:27.135Z,4.07
2018-08-13T05:43:55.700Z,4.33
2018-08-13T05:46:24.288Z,4.27
2018-08-13T05:48:52.864Z,4.80
2018-08-13T05:51:21.379Z,4.90
2018-08-13T05:53:50.034Z,5.73
2018-08-13T05:56:19.374Z,5.27
2018-08-13T05:58:47.891Z,5.60
2018-08-13T06:01:16.495Z,5.83
2018-08-13T06:03:45.331Z,5.60
2018-08-13T06:06:14.016Z,5.60
2018-08-13T06:08:42.900Z,5.37
2018-08-13T06:11:11.698Z,5.50
2018-08-13T06:13:40.426Z,4.83
2018-08-13T06:16:09.174Z,4.67
2018-08-13T06:18:37.762Z,5.03
2018-08-13T06:21:06.634Z,4.87
2018-08-13T06:23:35.439Z,4.80
2018-08-13T06:26:04.260Z,4.47
2018-08-13T06:28:33.062Z,4.17
2018-08-13T06:31:01.971Z,4.40
2018-08-13T06:33:30.855Z,4.43
2018-08-13T06:35:59.547Z,4.30
2018-08-13T06:38:28.255Z,4.20
2018-08-13T06:40:56.938Z,4.50
2018-08-13T06:43:25.830Z,4.20
2018-08-13T06:45:54.383Z,4.00
2018-08-13T06:48:22.911Z,4.07
2018-08-13T06:50:51.406Z,4.07
2018-08-13T06:53:19.932Z,4.23
2018-08-13T06:55:48.399Z,4.20
2018-08-13T06:58:16.886Z,4.33
2018-08-13T07:00:45.393Z,4.23
2018-08-13T07:03:13.868Z,4.17
2018-08-13T07:05:42.459Z,4.00
2018-08-13T07:08:10.935Z,4.13
2018-08-13T07:10:39.475Z,3.83
2018-08-13T07:13:07.935Z,3.80
2018-08-13T07:15:36.431Z,4.20
2018-08-13T07:18:05.907Z,3.77
2018-08-13T07:20:34.384Z,4.00
2018-08-13T07:23:02.884Z,4.23
2018-08-13T07:25:31.368Z,3.90
2018-08-13T07:27:59.914Z,4.07
2018-08-13T07:30:28.897Z,3.80
2018-08-13T07:32:57.400Z,4.30
2018-08-13T07:35:25.890Z,3.77
2018-08-13T07:37:54.367Z,4.00
2018-08-13T07:40:22.874Z,4.30
2018-08-13T07:42:51.359Z,4.00
2018-08-13T07:45:19.918Z,4.17
2018-08-13T07:47:48.440Z,4.00
2018-08-13T07:50:17.164Z,4.00
2018-08-13T07:52:45.751Z,3.93
2018-08-13T07:55:14.395Z,4.17
2018-08-13T07:57:42.884Z,3.87
2018-08-13T08:00:13.785Z,4.23
2018-08-13T08:02:42.294Z,4.43
2018-08-13T08:05:10.811Z,3.70
2018-08-13T08:07:39.339Z,4.03
2018-08-13T08:10:10.032Z,3.93
2018-08-13T08:12:38.558Z,3.90
2018-08-13T08:15:10.692Z,4.00
2018-08-13T08:17:39.201Z,4.20
2018-08-13T08:20:07.740Z,3.83
2018-08-13T08:22:36.302Z,4.20
2018-08-13T08:25:06.520Z,4.30
2018-08-13T08:27:35.010Z,4.30
2018-08-13T08:30:03.588Z,4.30
2018-08-13T08:32:32.063Z,4.33
2018-08-13T08:35:00.572Z,3.60
2018-08-13T08:37:29.049Z,3.97
2018-08-13T08:39:57.548Z,3.77
2018-08-13T08:42:26.104Z,4.27
2018-08-13T08:44:54.636Z,3.97
2018-08-13T08:47:23.156Z,4.00
2018-08-13T08:49:51.655Z,4.17
2018-08-13T08:52:20.167Z,3.77
2018-08-13T08:54:48.680Z,3.80
2018-08-13T08:57:17.170Z,3.67
2018-08-13T08:59:45.747Z,4.07
2018-08-13T09:02:14.254Z,4.10
2018-08-13T09:04:42.743Z,4.07
2018-08-13T09:07:11.240Z,3.70
2018-08-13T09:09:39.746Z,4.10
2018-08-13T09:12:08.267Z,4.00
2018-08-13T09:14:36.748Z,4.30
2018-08-13T09:17:05.287Z,3.80
2018-08-13T09:19:45.163Z,4.07
2018-08-13T09:22:24.922Z,4.07
2018-08-13T09:25:04.559Z,3.90
2018-08-13T09:27:44.237Z,3.90
2018-08-13T09:30:23.946Z,3.83
2018-08-13T09:33:03.663Z,3.63
2018-08-13T09:35:34.742Z,3.70
2018-08-13T09:38:03.312Z,4.40
2018-08-13T09:40:32.801Z,4.20
2018-08-13T09:43:01.311Z,4.03
2018-08-13T09:45:29.872Z,4.20
2018-08-13T09:47:58.388Z,4.30
2018-08-13T09:50:26.898Z,4.57
2018-08-13T09:52:55.433Z,3.90
2018-08-13T09:55:23.925Z,4.47
2018-08-13T09:57:52.587Z,4.37
2018-08-13T10:00:26.753Z,4.03
2018-08-13T10:02:55.245Z,4.40
2018-08-13T10:05:23.746Z,3.67
2018-08-13T10:07:52.278Z,4.33
2018-08-13T10:10:20.789Z,4.40
2018-08-13T10:12:49.335Z,4.60
2018-08-13T10:15:17.809Z,4.00
2018-08-13T10:17:46.326Z,4.10
2018-08-13T10:20:17.879Z,4.33
2018-08-13T10:22:46.739Z,4.20
2018-08-13T10:25:15.231Z,3.93
2018-08-13T10:27:43.792Z,4.13
2018-08-13T10:30:15.543Z,4.37
2018-08-13T10:32:44.115Z,4.30
2018-08-13T10:35:12.582Z,4.60
2018-08-13T10:37:41.695Z,4.50
2018-08-13T10:40:14.571Z,4.27
2018-08-13T10:42:43.045Z,3.83
2018-08-13T10:45:11.523Z,3.83
2018-08-13T10:47:40.051Z,4.10
2018-08-13T10:50:10.451Z,3.63
2018-08-13T10:52:39.245Z,4.20
2018-08-13T10:55:08.372Z,4.00
2018-08-13T10:57:36.862Z,3.90
2018-08-13T11:00:07.478Z,3.63
2018-08-13T11:02:36.020Z,4.00
2018-08-13T11:05:06.383Z,4.07
2018-08-13T11:07:34.927Z,4.00
2018-08-13T11:10:03.422Z,4.30
2018-08-13T11:12:31.919Z,3.97
2018-08-13T11:15:00.401Z,4.47
2018-08-13T11:17:28.938Z,4.53
2018-08-13T11:19:57.442Z,4.37
2018-08-13T11:22:25.950Z,4.17
2018-08-13T11:24:54.466Z,4.30
2018-08-13T11:27:22.999Z,4.57
2018-08-13T11:29:51.483Z,4.23
2018-08-13T11:32:20.100Z,4.20
2018-08-13T11:34:48.724Z,3.90
2018-08-13T11:37:17.333Z,3.80
2018-08-13T11:39:45.948Z,4.10
2018-08-13T11:42:14.557Z,4.63
2018-08-13T11:44:43.170Z,21.80
2018-08-13T11:47:11.729Z,24.27
2018-08-13T11:49:40.356Z,30.07
2018-08-13T11:52:08.979Z,36.83
2018-08-13T11:54:37.607Z,39.37
2018-08-13T11:57:06.276Z,39.53
2018-08-13T11:59:34.866Z,40.30
2018-08-13T12:02:03.480Z,38.63
2018-08-13T12:04:32.104Z,38.00
2018-08-13T12:07:00.715Z,38.90
2018-08-13T12:09:29.362Z,37.77
2018-08-13T12:11:58.010Z,37.00
2018-08-13T12:14:26.646Z,36.47
2018-08-13T12:16:55.257Z,36.17
2018-08-13T12:19:23.890Z,37.60
2018-08-13T12:21:52.467Z,36.90
2018-08-13T12:24:21.136Z,26.70
2018-08-13T12:26:49.740Z,22.73
2018-08-13T12:29:18.363Z,18.33
2018-08-13T12:31:47.092Z,16.90
2018-08-13T12:34:15.810Z,18.27
2018-08-13T12:36:44.424Z,17.90
2018-08-13T12:39:13.262Z,17.67
2018-08-13T12:41:41.800Z,18.67
2018-08-13T12:44:10.428Z,18.47
2018-08-13T12:46:39.039Z,19.30
2018-08-13T12:49:07.728Z,18.37
2018-08-13T12:51:36.276Z,18.27
2018-08-13T12:54:04.944Z,18.97
2018-08-13T12:56:33.502Z,18.67
2018-08-13T12:59:02.284Z,18.20
2018-08-13T13:01:30.877Z,18.13
2018-08-13T13:03:59.467Z,17.67
2018-08-13T13:06:28.106Z,18.33
2018-08-13T13:08:56.907Z,17.50
2018-08-13T13:11:25.516Z,18.57
2018-08-13T13:13:54.159Z,17.67
2018-08-13T13:16:22.754Z,17.73
2018-08-13T13:18:51.427Z,18.00
2018-08-13T13:21:20.315Z,18.77
2018-08-13T13:23:48.967Z,17.43
2018-08-13T13:26:17.555Z,16.87
2018-08-13T13:28:46.235Z,18.00
2018-08-13T13:31:14.828Z,17.57
2018-08-13T13:33:43.617Z,18.03
2018-08-13T13:36:12.281Z,17.80
2018-08-13T13:38:40.869Z,18.47
2018-08-13T13:41:09.529Z,16.97
2018-08-13T13:43:38.275Z,16.60
2018-08-13T13:46:07.291Z,17.23
2018-08-13T13:48:35.912Z,16.90
2018-08-13T13:51:04.546Z,17.77
2018-08-13T13:53:33.175Z,16.43
2018-08-13T13:56:01.970Z,17.80
2018-08-13T13:58:30.643Z,17.60
2018-08-13T14:00:59.237Z,16.97
2018-08-13T14:03:27.862Z,16.87
2018-08-13T14:05:56.511Z,17.00
2018-08-13T14:08:25.131Z,16.60
2018-08-13T14:10:53.750Z,18.13
2018-08-13T14:13:22.339Z,16.97
2018-08-13T14:15:50.920Z,16.07
2018-08-13T14:18:19.532Z,16.30
2018-08-13T14:20:48.167Z,16.30
2018-08-13T14:23:16.785Z,15.57
2018-08-13T14:25:45.377Z,14.77
2018-08-13T14:28:14.007Z,15.43
2018-08-13T14:30:42.709Z,15.50
2018-08-13T14:33:11.408Z,12.50
2018-08-13T14:35:40.057Z,13.00
2018-08-13T14:38:08.666Z,12.80
2018-08-13T14:40:37.304Z,11.97
2018-08-13T14:43:06.007Z,11.53
2018-08-13T14:45:34.681Z,11.77
2018-08-13T14:48:03.243Z,12.07
2018-08-13T14:50:31.812Z,11.93
2018-08-13T14:53:00.402Z,11.47
2018-08-13T14:55:29.082Z,12.17
2018-08-13T14:57:57.657Z,11.90
2018-08-13T15:00:34.150Z,13.03
2018-08-13T15:03:02.727Z,12.03
2018-08-13T15:05:31.340Z,12.90
2018-08-13T15:07:59.951Z,11.30
2018-08-13T15:10:29.019Z,11.53
2018-08-13T15:12:57.667Z,11.87
2018-08-13T15:15:26.332Z,10.60
2018-08-13T15:17:54.966Z,11.57
2018-08-13T15:20:26.938Z,11.17
2018-08-13T15:22:55.886Z,11.47
2018-08-13T15:25:24.642Z,11.30
2018-08-13T15:27:53.530Z,10.50
2018-08-13T15:30:22.798Z,11.17
2018-08-13T15:32:52.111Z,10.67
2018-08-13T15:35:20.633Z,11.73
2018-08-13T15:37:49.596Z,11.10
2018-08-13T15:40:18.370Z,10.43
2018-08-13T15:42:48.269Z,10.33
2018-08-13T15:45:19.141Z,10.13
2018-08-13T15:47:48.334Z,9.53
2018-08-13T15:50:19.112Z,10.00
2018-08-13T15:52:48.207Z,10.90
2018-08-13T15:55:16.847Z,10.83
2018-08-13T15:57:46.046Z,10.97
2018-08-13T16:00:20.886Z,11.07
2018-08-13T16:02:49.990Z,10.60
2018-08-13T16:05:18.667Z,10.70
2018-08-13T16:07:47.785Z,10.60
2018-08-13T16:10:17.131Z,10.33
2018-08-13T16:12:46.181Z,9.60
2018-08-13T16:15:14.832Z,10.77
2018-08-13T16:17:43.542Z,10.50
2018-08-13T16:20:14.647Z,10.53
2018-08-13T16:22:44.017Z,11.27
2018-08-13T16:25:12.543Z,10.60
2018-08-13T16:27:41.376Z,10.70
2018-08-13T16:30:14.118Z,10.40
2018-08-13T16:32:42.647Z,10.67
2018-08-13T16:35:11.168Z,11.27
2018-08-13T16:37:39.733Z,8.30
2018-08-13T16:40:08.323Z,7.27
2018-08-13T16:42:37.054Z,6.87
2018-08-13T16:45:06.361Z,6.40
2018-08-13T16:47:35.237Z,5.50
2018-08-13T16:50:03.730Z,5.50
2018-08-13T16:52:32.292Z,5.20
2018-08-13T16:55:00.846Z,5.10
2018-08-13T16:57:29.379Z,5.13
2018-08-13T16:59:58.390Z,4.80
2018-08-13T17:02:27.717Z,4.80
2018-08-13T17:04:56.476Z,4.40
2018-08-13T17:07:25.237Z,4.73
2018-08-13T17:09:54.045Z,4.83
2018-08-13T17:12:22.939Z,3.97
2018-08-13T17:14:51.924Z,5.00
2018-08-13T17:17:20.411Z,4.70
2018-08-13T17:19:48.940Z,4.47
2018-08-13T17:22:17.775Z,4.33
2018-08-13T17:24:47.414Z,4.80
2018-08-13T17:27:16.631Z,4.33
2018-08-13T17:29:45.270Z,4.57
2018-08-13T17:32:13.937Z,4.30
2018-08-13T17:34:42.495Z,4.77
2018-08-13T17:37:11.283Z,4.30
2018-08-13T17:39:40.155Z,4.20
2018-08-13T17:42:08.887Z,4.70
2018-08-13T17:44:38.065Z,4.63
2018-08-13T17:47:07.189Z,4.40
2018-08-13T17:49:36.291Z,4.70
2018-08-13T17:52:05.261Z,4.20
2018-08-13T17:54:34.236Z,4.43
2018-08-13T17:57:03.015Z,4.20
2018-08-13T17:59:31.564Z,4.37
2018-08-13T18:02:00.088Z,4.73
2018-08-13T18:04:28.600Z,4.47
2018-08-13T18:06:57.085Z,4.63
2018-08-13T18:09:25.602Z,4.20
2018-08-13T18:11:54.132Z,4.57
2018-08-13T18:14:22.674Z,4.47
2018-08-13T18:16:51.194Z,6.23
2018-08-13T18:19:19.693Z,22.40
2018-08-13T18:21:48.222Z,31.90
2018-08-13T18:24:16.767Z,61.00
2018-08-13T18:26:45.266Z,107.33
2018-08-13T18:29:13.861Z,82.93
2018-08-13T18:31:42.443Z,72.83
2018-08-13T18:34:11.113Z,74.63
2018-08-13T18:36:39.618Z,56.17
2018-08-13T18:39:09.135Z,65.17
2018-08-13T18:41:37.665Z,55.80
2018-08-13T18:44:08.348Z,53.80
2018-08-13T18:46:36.947Z,51.40
2018-08-13T18:49:05.475Z,47.67
2018-08-13T18:51:34.008Z,51.33
2018-08-13T18:54:02.555Z,48.77
2018-08-13T18:56:31.046Z,48.77
2018-08-13T18:58:59.587Z,46.50
2018-08-13T19:01:28.204Z,47.33
2018-08-13T19:03:56.733Z,46.00
2018-08-13T19:06:25.241Z,44.97
2018-08-13T19:08:53.803Z,46.03
2018-08-13T19:11:22.311Z,45.87
2018-08-13T19:13:50.806Z,45.63
2018-08-13T19:16:19.339Z,46.03
2018-08-13T19:18:47.862Z,44.43
2018-08-13T19:21:16.338Z,42.83
2018-08-13T19:23:44.853Z,42.47
2018-08-13T19:26:13.371Z,42.03
2018-08-13T19:28:41.877Z,41.87
2018-08-13T19:31:10.377Z,42.00
2018-08-13T19:33:38.914Z,42.23
2018-08-13T19:36:07.418Z,39.80
2018-08-13T19:38:35.943Z,42.87
2018-08-13T19:41:04.549Z,42.07
2018-08-13T19:43:33.095Z,41.60
2018-08-13T19:46:01.697Z,42.00
2018-08-13T19:48:30.315Z,40.13
2018-08-13T19:50:58.866Z,40.97
2018-08-13T19:53:27.403Z,39.27
2018-08-13T19:55:55.995Z,36.87
2018-08-13T19:58:24.481Z,37.37
2018-08-13T20:00:53.075Z,36.73
2018-08-13T20:03:21.589Z,37.17
2018-08-13T20:05:50.182Z,36.97
2018-08-13T20:08:18.884Z,37.77
2018-08-13T20:10:48.142Z,37.03
2018-08-13T20:13:16.726Z,38.13
2018-08-13T20:15:45.348Z,38.40
2018-08-13T20:18:13.874Z,37.73
2018-08-13T20:20:43.167Z,36.80
2018-08-13T20:23:11.736Z,35.30
2018-08-13T20:25:40.321Z,37.00
2018-08-13T20:28:08.899Z,36.60
2018-08-13T20:30:37.454Z,36.27
2018-08-13T20:33:06.142Z,36.50
2018-08-13T20:35:34.655Z,36.67
2018-08-13T20:38:03.186Z,36.90
2018-08-13T20:40:31.840Z,35.33
2018-08-13T20:43:00.479Z,34.47
2018-08-13T20:45:29.013Z,34.20
2018-08-13T20:47:57.535Z,35.63
2018-08-13T20:50:26.241Z,33.07
2018-08-13T20:52:55.344Z,34.03
2018-08-13T20:55:29.106Z,33.40
2018-08-13T20:57:57.670Z,31.57
2018-08-13T21:00:27.930Z,19.03
2018-08-13T21:02:56.494Z,16.07
2018-08-13T21:05:25.107Z,16.67
2018-08-13T21:07:53.614Z,17.87
2018-08-13T21:10:23.855Z,20.00
2018-08-13T21:12:52.609Z,21.17
2018-08-13T21:15:21.266Z,23.03
2018-08-13T21:17:49.767Z,22.93
2018-08-13T21:20:28.375Z,23.00
2018-08-13T21:22:57.053Z,21.77
2018-08-13T21:25:25.636Z,22.77
2018-08-13T21:27:54.337Z,22.10
2018-08-13T21:30:22.925Z,22.67
2018-08-13T21:32:51.448Z,23.23
2018-08-13T21:35:22.335Z,22.37
2018-08-13T21:37:51.270Z,21.10
2018-08-13T21:40:19.825Z,21.30
2018-08-13T21:42:49.326Z,21.10
2018-08-13T21:45:17.828Z,21.43
2018-08-13T21:47:46.363Z,19.83
2018-08-13T21:50:18.765Z,19.10
2018-08-13T21:52:48.359Z,20.40
2018-08-13T21:55:16.966Z,18.77
2018-08-13T21:57:45.522Z,18.73
2018-08-13T22:00:25.819Z,20.07
2018-08-13T22:02:54.874Z,18.47
2018-08-13T22:05:23.607Z,19.30
2018-08-13T22:07:52.187Z,18.63
2018-08-13T22:10:21.057Z,18.30
2018-08-13T22:12:49.674Z,18.07
2018-08-13T22:15:30.150Z,18.97
2018-08-13T22:18:00.407Z,17.37
2018-08-13T22:20:30.072Z,18.27
2018-08-13T22:22:59.735Z,17.33
2018-08-13T22:25:46.771Z,17.47
2018-08-13T22:28:17.978Z,18.10
2018-08-13T22:30:47.078Z,17.27
2018-08-13T22:33:15.727Z,18.60
2018-08-13T22:35:44.401Z,16.60
2018-08-13T22:38:13.015Z,18.30
2018-08-13T22:40:41.944Z,16.90
2018-08-13T22:43:11.256Z,17.83
2018-08-13T22:45:39.789Z,17.13
2018-08-13T22:48:08.433Z,16.50
2018-08-13T22:50:37.191Z,17.30
2018-08-13T22:53:05.883Z,16.63
2018-08-13T22:55:34.882Z,16.50
2018-08-13T22:58:03.413Z,17.37
2018-08-13T23:00:31.954Z,15.73
2018-08-13T23:03:00.490Z,15.70
2018-08-13T23:05:29.106Z,16.07
2018-08-13T23:07:57.698Z,16.20
2018-08-13T23:10:27.347Z,15.83
2018-08-13T23:12:57.477Z,16.37
2018-08-13T23:15:26.189Z,16.40
2018-08-13T23:17:55.295Z,15.83
2018-08-13T23:20:27.235Z,15.70
2018-08-13T23:22:57.312Z,14.80
2018-08-13T23:25:26.314Z,15.23
2018-08-13T23:27:56.173Z,15.00
2018-08-13T23:30:25.003Z,14.93
2018-08-13T23:32:54.459Z,14.87
2018-08-13T23:35:23.885Z,14.37
2018-08-13T23:37:52.682Z,14.80
2018-08-13T23:40:21.635Z,14.57
2018-08-13T23:42:50.981Z,14.53
2018-08-13T23:45:20.772Z,14.83
2018-08-13T23:47:49.474Z,14.80
2018-08-13T23:50:20.487Z,14.80
2018-08-13T23:52:50.279Z,14.53
2018-08-13T23:55:26.718Z,14.00
2018-08-13T23:57:55.655Z,14.77
